sensor_id;sensor_type;location;lat;lon;timestamp;pressure;altitude;pressure_sealevel;temperature;humidity
14790;BME280;7486;51.010;10.366;2023-06-10T00:02:32;97967.22;;;13.25;53.79
14790;BME280;7486;51.010;10.366;2023-06-10T00:05:17;97997.53;;;13.47;53.98
14790;BME280;7486;51.010;10.366;2023-06-10T00:08:03;98214.41;;;14.86;53.78
14790;BME280;7486;51.010;10.366;2023-06-10T00:10:48;98125.75;;;14.20;52.67
14790;BME280;7486;51.010;10.366;2023-06-10T00:13:34;98188.56;;;14.63;52.05
14790;BME280;7486;51.010;10.366;2023-06-10T00:16:19;98071.41;;;13.98;53.09
14790;BME280;7486;51.010;10.366;2023-06-10T00:19:05;97937.75;;;12.85;54.57
14790;BME280;7486;51.010;10.366;2023-06-10T00:21:51;98141.63;;;14.27;53.94
14790;BME280;7486;51.010;10.366;2023-06-10T00:24:37;98210.69;;;14.75;53.11
14790;BME280;7486;51.010;10.366;2023-06-10T00:27:22;97980.38;;;13.20;53.15
14790;BME280;7486;51.010;10.366;2023-06-10T00:30:08;97994.81;;;13.12;54.00
14790;BME280;7486;51.010;10.366;2023-06-10T00:32:54;98194.69;;;13.87;57.18
14790;BME280;7486;51.010;10.366;2023-06-10T00:35:39;98111.75;;;13.31;56.79
14790;BME280;7486;51.010;10.366;2023-06-10T00:38:25;98163.31;;;13.78;56.95
14790;BME280;7486;51.010;10.366;2023-06-10T00:41:10;98039.53;;;13.04;56.00
14790;BME280;7486;51.010;10.366;2023-06-10T00:43:56;98154.28;;;13.79;55.52
14790;BME280;7486;51.010;10.366;2023-06-10T00:46:41;97793.63;;;11.34;56.43
14790;BME280;7486;51.010;10.366;2023-06-10T00:49:27;98236.03;;;13.90;57.12
14790;BME280;7486;51.010;10.366;2023-06-10T00:52:14;98231.25;;;13.50;58.15
14790;BME280;7486;51.010;10.366;2023-06-10T00:55:00;98076.38;;;12.70;58.17
14790;BME280;7486;51.010;10.366;2023-06-10T00:57:46;98031.94;;;12.59;57.61
14790;BME280;7486;51.010;10.366;2023-06-10T01:00:32;97852.97;;;11.58;57.20
14790;BME280;7486;51.010;10.366;2023-06-10T01:03:20;98080.59;;;13.08;56.74
14790;BME280;7486;51.010;10.366;2023-06-10T01:09:06;98163.16;;;13.61;57.48
14790;BME280;7486;51.010;10.366;2023-06-10T01:12:12;98218.38;;;13.77;58.00
14790;BME280;7486;51.010;10.366;2023-06-10T01:15:01;98109.03;;;12.89;58.22
14790;BME280;7486;51.010;10.366;2023-06-10T01:17:59;98227.31;;;13.53;58.09
14790;BME280;7486;51.010;10.366;2023-06-10T01:20:46;98208.19;;;13.26;58.32
14790;BME280;7486;51.010;10.366;2023-06-10T01:23:31;98164.69;;;13.02;59.24
14790;BME280;7486;51.010;10.366;2023-06-10T01:26:17;98214.84;;;13.17;59.55
14790;BME280;7486;51.010;10.366;2023-06-10T01:29:14;98233.03;;;13.38;59.29
14790;BME280;7486;51.010;10.366;2023-06-10T01:32:08;98197.91;;;13.30;59.18
14790;BME280;7486;51.010;10.366;2023-06-10T01:34:57;98171.84;;;13.02;59.19
14790;BME280;7486;51.010;10.366;2023-06-10T01:37:45;98240.31;;;13.43;58.50
14790;BME280;7486;51.010;10.366;2023-06-10T01:40:32;98118.03;;;12.52;59.60
14790;BME280;7486;51.010;10.366;2023-06-10T01:43:19;98097.91;;;12.19;60.17
14790;BME280;7486;51.010;10.366;2023-06-10T01:46:05;98218.69;;;13.21;59.79
14790;BME280;7486;51.010;10.366;2023-06-10T01:48:51;98252.81;;;13.60;59.21
14790;BME280;7486;51.010;10.366;2023-06-10T01:51:36;98043.88;;;12.32;58.50
14790;BME280;7486;51.010;10.366;2023-06-10T01:54:22;98143.03;;;12.87;58.74
14790;BME280;7486;51.010;10.366;2023-06-10T01:57:07;98130.25;;;12.35;59.45
14790;BME280;7486;51.010;10.366;2023-06-10T01:59:53;98237.69;;;13.24;58.75
14790;BME280;7486;51.010;10.366;2023-06-10T02:02:38;98233.38;;;13.42;58.37
14790;BME280;7486;51.010;10.366;2023-06-10T02:05:23;98130.31;;;12.89;57.93
14790;BME280;7486;51.010;10.366;2023-06-10T02:08:12;98226.75;;;13.51;58.02
14790;BME280;7486;51.010;10.366;2023-06-10T02:11:00;98130.78;;;12.43;60.10
14790;BME280;7486;51.010;10.366;2023-06-10T02:13:48;98186.34;;;12.69;59.59
14790;BME280;7486;51.010;10.366;2023-06-10T02:16:33;98265.88;;;13.25;60.20
14790;BME280;7486;51.010;10.366;2023-06-10T02:19:23;98170.34;;;12.51;60.03
14790;BME280;7486;51.010;10.366;2023-06-10T02:22:09;98245.13;;;13.16;59.85
14790;BME280;7486;51.010;10.366;2023-06-10T02:24:54;98228.00;;;13.12;60.14
14790;BME280;7486;51.010;10.366;2023-06-10T02:27:40;98203.19;;;13.00;59.31
14790;BME280;7486;51.010;10.366;2023-06-10T02:30:26;98139.66;;;12.55;59.22
14790;BME280;7486;51.010;10.366;2023-06-10T02:33:12;98280.09;;;13.38;59.65
14790;BME280;7486;51.010;10.366;2023-06-10T02:35:58;98260.88;;;12.99;60.64
14790;BME280;7486;51.010;10.366;2023-06-10T02:38:44;98082.03;;;11.95;60.29
14790;BME280;7486;51.010;10.366;2023-06-10T02:41:30;98116.75;;;12.18;59.71
14790;BME280;7486;51.010;10.366;2023-06-10T02:44:17;98198.72;;;12.57;60.29
14790;BME280;7486;51.010;10.366;2023-06-10T02:47:04;98179.94;;;12.52;60.65
14790;BME280;7486;51.010;10.366;2023-06-10T02:49:51;98040.09;;;11.79;60.31
14790;BME280;7486;51.010;10.366;2023-06-10T02:52:37;98252.31;;;12.97;60.33
14790;BME280;7486;51.010;10.366;2023-06-10T02:55:23;98231.59;;;12.81;60.57
14790;BME280;7486;51.010;10.366;2023-06-10T02:58:12;98247.84;;;12.91;60.59
14790;BME280;7486;51.010;10.366;2023-06-10T03:00:58;98249.84;;;12.96;60.13
14790;BME280;7486;51.010;10.366;2023-06-10T03:03:46;98056.53;;;11.69;60.70
14790;BME280;7486;51.010;10.366;2023-06-10T03:06:34;98276.69;;;13.12;60.77
14790;BME280;7486;51.010;10.366;2023-06-10T03:09:29;98265.47;;;13.10;60.76
14790;BME280;7486;51.010;10.366;2023-06-10T03:12:17;98176.81;;;12.37;60.56
14790;BME280;7486;51.010;10.366;2023-06-10T03:15:05;98205.16;;;12.68;60.76
14790;BME280;7486;51.010;10.366;2023-06-10T03:17:52;98235.06;;;12.82;60.58
14790;BME280;7486;51.010;10.366;2023-06-10T03:20:38;98238.69;;;12.69;62.06
14790;BME280;7486;51.010;10.366;2023-06-10T03:23:25;98210.94;;;12.09;61.83
14790;BME280;7486;51.010;10.366;2023-06-10T03:26:11;98069.38;;;11.03;63.32
14790;BME280;7486;51.010;10.366;2023-06-10T03:28:59;98047.00;;;10.61;64.29
14790;BME280;7486;51.010;10.366;2023-06-10T03:31:44;98250.00;;;11.70;65.32
14790;BME280;7486;51.010;10.366;2023-06-10T03:34:30;98296.97;;;11.63;66.08
14790;BME280;7486;51.010;10.366;2023-06-10T03:37:16;98133.06;;;10.90;65.50
14790;BME280;7486;51.010;10.366;2023-06-10T03:40:05;97898.06;;;9.63;64.88
14790;BME280;7486;51.010;10.366;2023-06-10T03:42:52;98235.97;;;11.95;64.55
14790;BME280;7486;51.010;10.366;2023-06-10T03:45:37;98214.47;;;12.03;63.76
14790;BME280;7486;51.010;10.366;2023-06-10T03:48:23;98102.00;;;11.41;63.45
14790;BME280;7486;51.010;10.366;2023-06-10T03:51:10;98177.09;;;12.04;63.20
14790;BME280;7486;51.010;10.366;2023-06-10T03:53:56;98175.84;;;12.07;63.63
14790;BME280;7486;51.010;10.366;2023-06-10T03:56:41;98224.47;;;12.57;63.18
14790;BME280;7486;51.010;10.366;2023-06-10T03:59:27;98125.34;;;11.89;63.35
14790;BME280;7486;51.010;10.366;2023-06-10T04:02:12;98119.53;;;12.23;62.21
14790;BME280;7486;51.010;10.366;2023-06-10T04:04:58;98121.50;;;12.52;60.94
14790;BME280;7486;51.010;10.366;2023-06-10T04:07:44;98115.44;;;12.45;61.10
14790;BME280;7486;51.010;10.366;2023-06-10T04:10:29;98053.34;;;12.03;61.70
14790;BME280;7486;51.010;10.366;2023-06-10T04:13:15;98263.78;;;13.82;60.95
14790;BME280;7486;51.010;10.366;2023-06-10T04:16:10;98214.84;;;13.83;60.04
14790;BME280;7486;51.010;10.366;2023-06-10T04:18:55;98302.94;;;14.41;59.33
14790;BME280;7486;51.010;10.366;2023-06-10T04:21:42;98266.69;;;14.22;60.67
14790;BME280;7486;51.010;10.366;2023-06-10T04:24:28;98209.03;;;14.28;59.91
14790;BME280;7486;51.010;10.366;2023-06-10T04:27:14;98191.25;;;14.51;59.06
14790;BME280;7486;51.010;10.366;2023-06-10T04:33:02;98242.28;;;15.18;57.86
14790;BME280;7486;51.010;10.366;2023-06-10T04:35:47;98298.44;;;15.23;57.94
14790;BME280;7486;51.010;10.366;2023-06-10T04:38:33;98162.38;;;13.84;59.84
14790;BME280;7486;51.010;10.366;2023-06-10T04:41:19;98285.22;;;14.93;60.12
14790;BME280;7486;51.010;10.366;2023-06-10T04:44:04;98300.63;;;15.49;59.22
14790;BME280;7486;51.010;10.366;2023-06-10T04:46:50;98119.72;;;13.90;60.19
14790;BME280;7486;51.010;10.366;2023-06-10T04:49:36;98302.16;;;15.10;60.05
14790;BME280;7486;51.010;10.366;2023-06-10T04:52:21;98248.38;;;14.55;61.16
14790;BME280;7486;51.010;10.366;2023-06-10T04:55:07;98075.00;;;14.15;59.84
14790;BME280;7486;51.010;10.366;2023-06-10T04:57:53;98219.78;;;15.14;58.09
14790;BME280;7486;51.010;10.366;2023-06-10T05:00:39;98087.13;;;14.69;56.37
14790;BME280;7486;51.010;10.366;2023-06-10T05:03:25;98161.88;;;15.83;54.81
14790;BME280;7486;51.010;10.366;2023-06-10T05:06:10;98269.81;;;16.27;58.01
14790;BME280;7486;51.010;10.366;2023-06-10T05:08:56;98209.69;;;15.96;55.63
14790;BME280;7486;51.010;10.366;2023-06-10T05:11:42;98263.34;;;16.72;55.71
14790;BME280;7486;51.010;10.366;2023-06-10T05:14:27;98251.41;;;15.85;58.91
14790;BME280;7486;51.010;10.366;2023-06-10T05:17:12;98163.31;;;15.17;60.43
14790;BME280;7486;51.010;10.366;2023-06-10T05:19:58;98278.13;;;16.13;59.36
14790;BME280;7486;51.010;10.366;2023-06-10T05:22:44;98270.28;;;16.23;59.31
14790;BME280;7486;51.010;10.366;2023-06-10T05:25:33;98270.38;;;16.12;58.76
14790;BME280;7486;51.010;10.366;2023-06-10T05:28:18;98127.63;;;15.06;57.42
14790;BME280;7486;51.010;10.366;2023-06-10T05:31:04;98223.72;;;15.74;58.25
14790;BME280;7486;51.010;10.366;2023-06-10T05:33:49;98257.00;;;16.12;58.52
14790;BME280;7486;51.010;10.366;2023-06-10T05:36:35;98251.69;;;16.45;60.20
14790;BME280;7486;51.010;10.366;2023-06-10T05:39:20;98142.13;;;15.84;59.79
14790;BME280;7486;51.010;10.366;2023-06-10T05:42:07;98040.50;;;15.40;57.60
14790;BME280;7486;51.010;10.366;2023-06-10T05:44:53;98192.72;;;16.35;57.63
14790;BME280;7486;51.010;10.366;2023-06-10T05:47:38;98262.06;;;16.92;56.84
14790;BME280;7486;51.010;10.366;2023-06-10T05:50:24;98302.81;;;17.37;58.04
14790;BME280;7486;51.010;10.366;2023-06-10T05:53:10;98327.75;;;17.59;56.95
14790;BME280;7486;51.010;10.366;2023-06-10T05:55:56;98206.13;;;16.90;55.72
14790;BME280;7486;51.010;10.366;2023-06-10T05:58:41;98103.63;;;16.30;55.49
14790;BME280;7486;51.010;10.366;2023-06-10T06:01:27;98137.44;;;16.57;56.25
14790;BME280;7486;51.010;10.366;2023-06-10T06:04:12;98289.41;;;17.76;56.27
14790;BME280;7486;51.010;10.366;2023-06-10T06:06:57;98101.47;;;17.08;54.12
14790;BME280;7486;51.010;10.366;2023-06-10T06:09:43;98248.31;;;17.92;52.73
14790;BME280;7486;51.010;10.366;2023-06-10T06:12:29;98315.09;;;18.47;53.54
14790;BME280;7486;51.010;10.366;2023-06-10T06:15:15;98294.50;;;18.52;53.62
14790;BME280;7486;51.010;10.366;2023-06-10T06:18:00;98326.03;;;19.04;51.50
14790;BME280;7486;51.010;10.366;2023-06-10T06:20:45;98207.56;;;17.41;51.68
14790;BME280;7486;51.010;10.366;2023-06-10T06:23:31;98160.56;;;16.68;54.16
14790;BME280;7486;51.010;10.366;2023-06-10T06:26:16;98256.00;;;17.18;55.37
14790;BME280;7486;51.010;10.366;2023-06-10T06:29:02;98289.06;;;17.50;55.21
14790;BME280;7486;51.010;10.366;2023-06-10T06:31:47;98287.13;;;17.24;54.74
14790;BME280;7486;51.010;10.366;2023-06-10T06:34:32;98223.88;;;16.63;55.54
14790;BME280;7486;51.010;10.366;2023-06-10T06:37:18;98249.41;;;16.70;56.81
14790;BME280;7486;51.010;10.366;2023-06-10T06:40:04;98247.63;;;16.76;56.86
14790;BME280;7486;51.010;10.366;2023-06-10T06:42:49;98305.00;;;17.18;55.35
14790;BME280;7486;51.010;10.366;2023-06-10T06:45:41;98265.13;;;16.84;56.93
14790;BME280;7486;51.010;10.366;2023-06-10T06:48:26;98242.75;;;16.90;56.78
14790;BME280;7486;51.010;10.366;2023-06-10T06:51:12;98308.66;;;17.34;56.12
14790;BME280;7486;51.010;10.366;2023-06-10T06:53:57;98194.78;;;16.66;56.79
14790;BME280;7486;51.010;10.366;2023-06-10T06:56:43;98322.31;;;17.54;56.47
14790;BME280;7486;51.010;10.366;2023-06-10T06:59:28;98339.22;;;18.20;55.31
14790;BME280;7486;51.010;10.366;2023-06-10T07:02:14;98272.72;;;17.68;54.25
14790;BME280;7486;51.010;10.366;2023-06-10T07:05:00;98162.16;;;16.86;54.63
14790;BME280;7486;51.010;10.366;2023-06-10T07:07:45;98246.22;;;17.50;54.74
14790;BME280;7486;51.010;10.366;2023-06-10T07:10:31;98304.94;;;17.35;55.95
14790;BME280;7486;51.010;10.366;2023-06-10T07:13:16;98295.09;;;17.41;56.03
14790;BME280;7486;51.010;10.366;2023-06-10T07:16:02;98137.09;;;16.70;54.92
14790;BME280;7486;51.010;10.366;2023-06-10T07:18:47;98151.09;;;16.78;55.33
14790;BME280;7486;51.010;10.366;2023-06-10T07:21:36;98309.31;;;18.33;54.41
14790;BME280;7486;51.010;10.366;2023-06-10T07:24:21;98280.31;;;18.30;53.87
14790;BME280;7486;51.010;10.366;2023-06-10T07:27:07;98267.38;;;18.22;54.53
14790;BME280;7486;51.010;10.366;2023-06-10T07:29:53;98358.78;;;19.06;55.88
14790;BME280;7486;51.010;10.366;2023-06-10T07:32:39;98324.44;;;19.08;52.09
14790;BME280;7486;51.010;10.366;2023-06-10T07:35:24;98356.34;;;19.36;52.00
14790;BME280;7486;51.010;10.366;2023-06-10T07:38:10;98285.66;;;18.89;51.15
14790;BME280;7486;51.010;10.366;2023-06-10T07:40:55;98325.00;;;19.10;51.75
14790;BME280;7486;51.010;10.366;2023-06-10T07:43:42;98332.75;;;19.43;53.95
14790;BME280;7486;51.010;10.366;2023-06-10T07:46:30;98269.16;;;19.64;50.59
14790;BME280;7486;51.010;10.366;2023-06-10T07:49:16;98327.56;;;19.84;53.92
14790;BME280;7486;51.010;10.366;2023-06-10T07:52:02;98279.44;;;19.82;50.88
14790;BME280;7486;51.010;10.366;2023-06-10T07:54:53;98348.22;;;20.50;50.60
14790;BME280;7486;51.010;10.366;2023-06-10T07:57:41;98264.75;;;20.25;50.32
14790;BME280;7486;51.010;10.366;2023-06-10T08:00:30;98324.28;;;20.79;51.98
14790;BME280;7486;51.010;10.366;2023-06-10T08:03:28;98358.22;;;21.05;51.75
14790;BME280;7486;51.010;10.366;2023-06-10T08:06:15;98216.84;;;19.97;51.43
14790;BME280;7486;51.010;10.366;2023-06-10T08:09:02;98352.28;;;20.93;50.69
14790;BME280;7486;51.010;10.366;2023-06-10T08:11:48;98163.09;;;20.12;51.91
14790;BME280;7486;51.010;10.366;2023-06-10T08:14:37;98337.09;;;21.58;51.15
14790;BME280;7486;51.010;10.366;2023-06-10T08:17:23;98267.56;;;21.55;50.08
14790;BME280;7486;51.010;10.366;2023-06-10T08:20:12;98346.66;;;22.04;48.61
14790;BME280;7486;51.010;10.366;2023-06-10T08:23:00;98325.50;;;21.67;50.51
14790;BME280;7486;51.010;10.366;2023-06-10T08:25:46;98270.13;;;21.16;50.43
14790;BME280;7486;51.010;10.366;2023-06-10T08:28:31;98205.56;;;20.76;49.36
14790;BME280;7486;51.010;10.366;2023-06-10T08:31:17;98348.97;;;21.57;49.77
14790;BME280;7486;51.010;10.366;2023-06-10T08:34:05;98347.34;;;21.51;49.98
14790;BME280;7486;51.010;10.366;2023-06-10T08:36:53;98074.09;;;19.93;51.48
14790;BME280;7486;51.010;10.366;2023-06-10T08:39:44;98272.28;;;21.29;48.76
14790;BME280;7486;51.010;10.366;2023-06-10T08:42:42;98315.19;;;21.90;51.92
14790;BME280;7486;51.010;10.366;2023-06-10T08:45:30;98353.38;;;22.12;51.79
14790;BME280;7486;51.010;10.366;2023-06-10T08:48:19;98193.22;;;21.54;51.65
14790;BME280;7486;51.010;10.366;2023-06-10T08:51:05;98247.16;;;22.37;48.42
14790;BME280;7486;51.010;10.366;2023-06-10T08:54:01;98317.44;;;22.60;47.40
14790;BME280;7486;51.010;10.366;2023-06-10T08:56:49;98278.63;;;22.12;46.44
14790;BME280;7486;51.010;10.366;2023-06-10T08:59:34;98213.91;;;21.63;47.51
14790;BME280;7486;51.010;10.366;2023-06-10T09:02:20;98254.81;;;21.81;47.60
14790;BME280;7486;51.010;10.366;2023-06-10T09:05:07;98222.25;;;21.62;47.55
14790;BME280;7486;51.010;10.366;2023-06-10T09:07:53;98345.22;;;22.22;46.08
14790;BME280;7486;51.010;10.366;2023-06-10T09:10:41;98129.19;;;20.61;48.51
14790;BME280;7486;51.010;10.366;2023-06-10T09:13:26;98308.78;;;21.65;48.36
14790;BME280;7486;51.010;10.366;2023-06-10T09:16:11;98078.94;;;20.16;48.88
14790;BME280;7486;51.010;10.366;2023-06-10T09:18:57;98238.81;;;21.40;48.89
14790;BME280;7486;51.010;10.366;2023-06-10T09:21:43;98323.81;;;21.82;49.92
14790;BME280;7486;51.010;10.366;2023-06-10T09:24:29;98321.59;;;21.99;49.40
14790;BME280;7486;51.010;10.366;2023-06-10T09:27:15;98104.91;;;20.82;48.42
14790;BME280;7486;51.010;10.366;2023-06-10T09:30:02;98258.63;;;21.69;47.87
14790;BME280;7486;51.010;10.366;2023-06-10T09:32:48;98254.34;;;21.63;48.82
14790;BME280;7486;51.010;10.366;2023-06-10T09:35:34;98082.78;;;20.90;47.25
14790;BME280;7486;51.010;10.366;2023-06-10T09:38:21;98100.50;;;21.01;47.81
14790;BME280;7486;51.010;10.366;2023-06-10T09:41:07;98237.72;;;22.00;47.86
14790;BME280;7486;51.010;10.366;2023-06-10T09:43:52;98175.38;;;21.58;47.35
14790;BME280;7486;51.010;10.366;2023-06-10T09:46:38;98249.38;;;21.91;49.32
14790;BME280;7486;51.010;10.366;2023-06-10T09:49:23;98129.38;;;21.44;48.83
14790;BME280;7486;51.010;10.366;2023-06-10T09:52:08;98286.72;;;22.56;47.10
14790;BME280;7486;51.010;10.366;2023-06-10T09:54:58;98145.28;;;21.46;46.99
14790;BME280;7486;51.010;10.366;2023-06-10T09:57:44;97988.81;;;20.24;47.75
14790;BME280;7486;51.010;10.366;2023-06-10T10:00:34;98288.13;;;22.05;48.36
14790;BME280;7486;51.010;10.366;2023-06-10T10:03:22;98317.19;;;22.18;48.21
14790;BME280;7486;51.010;10.366;2023-06-10T10:06:08;98247.75;;;21.90;48.21
14790;BME280;7486;51.010;10.366;2023-06-10T10:08:54;98128.41;;;21.30;48.48
14790;BME280;7486;51.010;10.366;2023-06-10T10:11:40;98191.50;;;21.68;46.37
14790;BME280;7486;51.010;10.366;2023-06-10T10:14:26;98099.63;;;21.20;46.85
14790;BME280;7486;51.010;10.366;2023-06-10T10:17:14;98307.97;;;22.24;47.44
14790;BME280;7486;51.010;10.366;2023-06-10T10:20:03;97833.19;;;19.38;47.42
14790;BME280;7486;51.010;10.366;2023-06-10T10:22:49;98253.06;;;22.05;47.47
14790;BME280;7486;51.010;10.366;2023-06-10T10:25:38;98235.03;;;22.34;47.27
14790;BME280;7486;51.010;10.366;2023-06-10T10:28:29;98256.03;;;22.42;47.75
14790;BME280;7486;51.010;10.366;2023-06-10T10:31:21;98253.47;;;22.61;45.31
14790;BME280;7486;51.010;10.366;2023-06-10T10:34:09;98295.00;;;22.65;45.53
14790;BME280;7486;51.010;10.366;2023-06-10T10:36:57;98182.47;;;21.93;47.25
14790;BME280;7486;51.010;10.366;2023-06-10T10:39:44;98240.88;;;22.51;46.64
14790;BME280;7486;51.010;10.366;2023-06-10T10:42:31;98233.03;;;22.84;46.00
14790;BME280;7486;51.010;10.366;2023-06-10T10:45:17;98163.72;;;22.11;46.19
14790;BME280;7486;51.010;10.366;2023-06-10T10:48:08;98233.66;;;22.99;47.14
14790;BME280;7486;51.010;10.366;2023-06-10T10:50:57;98256.06;;;22.71;46.30
14790;BME280;7486;51.010;10.366;2023-06-10T10:53:42;98135.94;;;22.11;45.84
14790;BME280;7486;51.010;10.366;2023-06-10T10:56:28;98225.72;;;22.55;45.32
14790;BME280;7486;51.010;10.366;2023-06-10T10:59:14;98161.25;;;21.76;46.36
14790;BME280;7486;51.010;10.366;2023-06-10T11:01:59;98255.22;;;22.42;45.48
14790;BME280;7486;51.010;10.366;2023-06-10T11:04:47;98301.72;;;22.73;44.23
14790;BME280;7486;51.010;10.366;2023-06-10T11:07:34;98299.66;;;22.88;46.35
14790;BME280;7486;51.010;10.366;2023-06-10T11:10:29;98190.06;;;22.58;45.62
14790;BME280;7486;51.010;10.366;2023-06-10T11:13:15;98236.94;;;22.96;46.47
14790;BME280;7486;51.010;10.366;2023-06-10T11:16:04;98146.13;;;22.53;44.15
14790;BME280;7486;51.010;10.366;2023-06-10T11:18:53;98298.03;;;23.21;43.96
14790;BME280;7486;51.010;10.366;2023-06-10T11:21:58;98125.56;;;21.94;45.35
14790;BME280;7486;51.010;10.366;2023-06-10T11:24:48;98286.03;;;23.56;45.50
14790;BME280;7486;51.010;10.366;2023-06-10T11:27:38;98159.53;;;22.87;43.56
14790;BME280;7486;51.010;10.366;2023-06-10T11:30:25;98287.00;;;23.41;43.59
14790;BME280;7486;51.010;10.366;2023-06-10T11:33:17;98156.06;;;22.81;44.46
14790;BME280;7486;51.010;10.366;2023-06-10T11:36:06;98112.47;;;22.93;44.56
14790;BME280;7486;51.010;10.366;2023-06-10T11:38:57;98252.09;;;23.68;43.38
14790;BME280;7486;51.010;10.366;2023-06-10T11:41:43;98252.44;;;23.14;42.71
14790;BME280;7486;51.010;10.366;2023-06-10T11:44:28;98233.69;;;22.70;44.36
14790;BME280;7486;51.010;10.366;2023-06-10T11:47:13;98232.03;;;22.46;44.75
14790;BME280;7486;51.010;10.366;2023-06-10T11:49:59;98224.78;;;22.36;44.94
14790;BME280;7486;51.010;10.366;2023-06-10T11:52:44;97965.09;;;20.95;45.40
14790;BME280;7486;51.010;10.366;2023-06-10T11:58:29;98203.81;;;22.23;45.91
14790;BME280;7486;51.010;10.366;2023-06-10T12:01:23;98276.91;;;22.70;48.55
14790;BME280;7486;51.010;10.366;2023-06-10T12:04:15;98265.91;;;22.91;44.85
14790;BME280;7486;51.010;10.366;2023-06-10T12:07:01;98256.81;;;23.05;46.25
14790;BME280;7486;51.010;10.366;2023-06-10T12:09:46;98225.47;;;23.33;45.32
14790;BME280;7486;51.010;10.366;2023-06-10T12:12:34;98263.81;;;23.59;42.76
14790;BME280;7486;51.010;10.366;2023-06-10T12:15:24;98256.59;;;23.31;43.35
14790;BME280;7486;51.010;10.366;2023-06-10T12:18:16;98197.81;;;22.94;42.81
14790;BME280;7486;51.010;10.366;2023-06-10T12:21:01;98130.19;;;22.23;41.58
14790;BME280;7486;51.010;10.366;2023-06-10T12:24:09;98258.94;;;23.13;42.22
14790;BME280;7486;51.010;10.366;2023-06-10T12:26:54;98117.00;;;22.74;44.46
14790;BME280;7486;51.010;10.366;2023-06-10T12:29:51;98230.44;;;23.68;41.92
14790;BME280;7486;51.010;10.366;2023-06-10T12:32:45;98261.81;;;23.69;40.47
14790;BME280;7486;51.010;10.366;2023-06-10T12:35:31;98164.56;;;22.69;42.09
14790;BME280;7486;51.010;10.366;2023-06-10T12:38:23;98260.34;;;23.53;42.37
14790;BME280;7486;51.010;10.366;2023-06-10T12:41:09;98253.72;;;23.88;43.63
14790;BME280;7486;51.010;10.366;2023-06-10T12:43:55;97995.41;;;22.36;42.13
14790;BME280;7486;51.010;10.366;2023-06-10T12:46:40;98114.53;;;23.01;41.89
14790;BME280;7486;51.010;10.366;2023-06-10T12:49:26;98058.19;;;22.70;43.37
14790;BME280;7486;51.010;10.366;2023-06-10T12:52:12;98083.56;;;22.93;41.60
14790;BME280;7486;51.010;10.366;2023-06-10T12:54:57;98167.78;;;23.61;42.21
14790;BME280;7486;51.010;10.366;2023-06-10T12:57:50;98242.75;;;24.17;41.49
14790;BME280;7486;51.010;10.366;2023-06-10T13:00:36;98119.69;;;23.21;41.51
14790;BME280;7486;51.010;10.366;2023-06-10T13:03:21;98177.22;;;22.98;43.49
14790;BME280;7486;51.010;10.366;2023-06-10T13:06:07;98127.31;;;22.43;42.03
14790;BME280;7486;51.010;10.366;2023-06-10T13:08:53;98229.78;;;23.34;42.83
14790;BME280;7486;51.010;10.366;2023-06-10T13:11:38;98153.34;;;23.10;42.17
14790;BME280;7486;51.010;10.366;2023-06-10T13:14:24;98139.13;;;22.76;41.22
14790;BME280;7486;51.010;10.366;2023-06-10T13:17:10;98165.28;;;23.04;42.53
14790;BME280;7486;51.010;10.366;2023-06-10T13:19:56;98043.78;;;22.04;43.04
14790;BME280;7486;51.010;10.366;2023-06-10T13:22:41;97910.06;;;21.45;43.51
14790;BME280;7486;51.010;10.366;2023-06-10T13:25:27;98125.84;;;22.55;43.25
14790;BME280;7486;51.010;10.366;2023-06-10T13:28:13;98204.66;;;23.10;43.94
14790;BME280;7486;51.010;10.366;2023-06-10T13:30:58;98102.28;;;22.61;42.21
14790;BME280;7486;51.010;10.366;2023-06-10T13:33:44;98217.00;;;23.40;42.08
14790;BME280;7486;51.010;10.366;2023-06-10T13:36:29;98088.09;;;22.50;43.13
14790;BME280;7486;51.010;10.366;2023-06-10T13:39:15;98172.81;;;23.07;43.16
14790;BME280;7486;51.010;10.366;2023-06-10T13:42:01;98073.47;;;22.28;43.90
14790;BME280;7486;51.010;10.366;2023-06-10T13:44:46;98093.97;;;22.57;43.51
14790;BME280;7486;51.010;10.366;2023-06-10T13:47:32;98101.59;;;22.50;43.04
14790;BME280;7486;51.010;10.366;2023-06-10T13:50:18;98179.34;;;22.77;44.20
14790;BME280;7486;51.010;10.366;2023-06-10T13:53:03;98225.69;;;23.13;44.62
14790;BME280;7486;51.010;10.366;2023-06-10T13:55:49;98041.22;;;21.89;45.00
14790;BME280;7486;51.010;10.366;2023-06-10T13:58:34;98088.78;;;22.08;44.43
14790;BME280;7486;51.010;10.366;2023-06-10T14:01:20;98174.94;;;22.57;44.13
14790;BME280;7486;51.010;10.366;2023-06-10T14:04:06;98119.06;;;22.29;45.33
14790;BME280;7486;51.010;10.366;2023-06-10T14:06:52;98221.69;;;23.05;42.77
14790;BME280;7486;51.010;10.366;2023-06-10T14:09:37;98045.75;;;21.93;44.47
14790;BME280;7486;51.010;10.366;2023-06-10T14:12:23;98166.84;;;22.57;44.44
14790;BME280;7486;51.010;10.366;2023-06-10T14:15:09;98134.59;;;22.42;45.05
14790;BME280;7486;51.010;10.366;2023-06-10T14:17:55;98152.75;;;22.89;43.92
14790;BME280;7486;51.010;10.366;2023-06-10T14:20:41;97793.88;;;20.94;44.40
14790;BME280;7486;51.010;10.366;2023-06-10T14:23:26;98115.97;;;23.17;42.00
14790;BME280;7486;51.010;10.366;2023-06-10T14:26:12;98205.13;;;23.59;43.34
14790;BME280;7486;51.010;10.366;2023-06-10T14:28:57;98219.56;;;23.07;42.95
14790;BME280;7486;51.010;10.366;2023-06-10T14:31:43;98157.00;;;22.43;43.46
14790;BME280;7486;51.010;10.366;2023-06-10T14:34:28;97982.47;;;21.86;43.31
14790;BME280;7486;51.010;10.366;2023-06-10T14:37:14;98004.88;;;22.57;43.07
14790;BME280;7486;51.010;10.366;2023-06-10T14:39:59;98176.88;;;23.89;43.32
14790;BME280;7486;51.010;10.366;2023-06-10T14:42:44;98066.22;;;23.55;41.42
14790;BME280;7486;51.010;10.366;2023-06-10T14:45:29;97966.56;;;22.98;41.67
14790;BME280;7486;51.010;10.366;2023-06-10T14:48:16;98133.00;;;23.92;41.83
14790;BME280;7486;51.010;10.366;2023-06-10T14:51:01;98166.44;;;24.15;43.08
14790;BME280;7486;51.010;10.366;2023-06-10T14:53:47;98061.31;;;23.57;43.09